Time;durP1;ratioP1;P1;durP2;ratioP2;P2;SDS_P1;SDS_P2;PMS_P1;PMS_P2;Temp;Humidity;BMP_temperature;BMP_pressure;BME280_temperature;BME280_humidity;BME280_pressure;Samples;Min_cycle;Max_cycle;Signal;HPM_P1;HPM_P2
2022/06/27 00:00:16;;;;;;;4.20;3.07;;;24.60;99.90;;;;;;5096411;28;20440;-69
2022/06/27 00:02:42;;;;;;;4.10;3.70;;;24.50;99.90;;;;;;5096334;28;21018;-71
2022/06/27 00:05:09;;;;;;;4.00;3.57;;;24.50;99.90;;;;;;5096357;28;20464;-70
2022/06/27 00:07:36;;;;;;;3.53;3.23;;;24.40;99.90;;;;;;5096050;28;20533;-70
2022/06/27 00:10:04;;;;;;;3.47;3.17;;;24.40;99.90;;;;;;5096041;28;20473;-69
2022/06/27 00:12:30;;;;;;;4.27;3.57;;;24.40;99.90;;;;;;5095965;28;20457;-69
2022/06/27 00:14:57;;;;;;;4.00;3.70;;;24.30;99.90;;;;;;5114746;28;20402;-70
2022/06/27 00:17:23;;;;;;;6.10;5.00;;;24.30;99.90;;;;;;5095991;28;20439;-70
2022/06/27 00:20:03;;;;;;;6.03;5.00;;;24.20;99.90;;;;;;5096450;28;20783;-70
2022/06/27 00:22:29;;;;;;;4.67;4.27;;;24.20;99.90;;;;;;5095977;28;20588;-69
2022/06/27 00:24:56;;;;;;;4.87;4.40;;;24.10;99.90;;;;;;5096389;28;20456;-69
2022/06/27 00:27:24;;;;;;;4.70;4.30;;;24.10;99.90;;;;;;5096055;28;20849;-69
2022/06/27 00:29:50;;;;;;;4.37;4.00;;;24.10;99.90;;;;;;5092715;28;20491;-69
2022/06/27 00:32:16;;;;;;;4.37;3.97;;;24.10;99.90;;;;;;5092618;28;20430;-70
2022/06/27 00:34:44;;;;;;;5.00;3.90;;;24.00;99.90;;;;;;5092963;28;20441;-70
2022/06/27 00:37:14;;;;;;;4.40;4.00;;;24.00;99.90;;;;;;5092762;28;20441;-68
2022/06/27 00:39:41;;;;;;;5.17;4.00;;;24.00;99.90;;;;;;5092862;28;20441;-68
2022/06/27 00:42:08;;;;;;;4.43;4.13;;;24.00;99.90;;;;;;5092865;28;20928;-68
2022/06/27 00:44:42;;;;;;;4.90;4.50;;;24.00;99.90;;;;;;5093137;28;20244;-68
2022/06/27 00:47:11;;;;;;;4.23;3.93;;;24.00;99.90;;;;;;5092485;28;20431;-68
2022/06/27 00:49:37;;;;;;;5.00;4.50;;;23.90;99.90;;;;;;5093209;28;20484;-68
2022/06/27 00:52:05;;;;;;;3.50;3.20;;;23.90;99.90;;;;;;5096405;28;20430;-68
2022/06/27 00:54:31;;;;;;;4.60;4.10;;;23.90;99.90;;;;;;5096673;28;20547;-68
2022/06/27 00:56:57;;;;;;;5.03;4.60;;;23.90;99.90;;;;;;5096353;28;20452;-68
2022/06/27 00:59:24;;;;;;;4.43;4.03;;;23.90;99.90;;;;;;5096649;28;20529;-68
2022/06/27 01:02:04;;;;;;;4.23;3.60;;;23.90;99.90;;;;;;5096641;28;20271;-71
2022/06/27 01:04:31;;;;;;;5.77;4.03;;;23.80;99.90;;;;;;5098294;28;20415;-69
2022/06/27 01:07:00;;;;;;;3.80;3.50;;;23.80;99.90;;;;;;5096179;28;20434;-68
2022/06/27 01:09:26;;;;;;;4.70;4.30;;;23.70;99.90;;;;;;5096477;28;20473;-68
2022/06/27 01:11:52;;;;;;;5.20;3.70;;;23.70;99.90;;;;;;5097547;28;20430;-70
2022/06/27 01:14:20;;;;;;;4.23;3.73;;;23.60;99.90;;;;;;5096399;28;20774;-68
2022/06/27 01:16:46;;;;;;;5.20;4.70;;;23.60;99.90;;;;;;5096162;28;20533;-68
2022/06/27 01:19:17;;;;;;;4.60;4.00;;;23.60;99.90;;;;;;5096251;28;20486;-68
2022/06/27 01:21:47;;;;;;;4.90;4.30;;;23.60;99.90;;;;;;5096166;28;20792;-68
2022/06/27 01:24:15;;;;;;;4.10;3.70;;;23.60;99.90;;;;;;5097382;28;20432;-68
2022/06/27 01:26:44;;;;;;;4.83;4.33;;;23.60;99.90;;;;;;5095955;28;20446;-69
2022/06/27 01:29:16;;;;;;;4.60;3.73;;;23.60;99.90;;;;;;5095633;28;20497;-68
2022/06/27 01:31:42;;;;;;;4.23;3.83;;;23.50;99.90;;;;;;5097271;28;20426;-68
2022/06/27 01:34:11;;;;;;;4.10;3.73;;;23.50;99.90;;;;;;5096723;28;20428;-68
2022/06/27 01:36:43;;;;;;;5.57;5.07;;;23.50;99.90;;;;;;5096052;28;20934;-68
2022/06/27 01:39:19;;;;;;;4.60;4.20;;;23.50;99.90;;;;;;5095943;28;20437;-69
2022/06/27 01:41:57;;;;;;;5.20;4.60;;;23.50;99.90;;;;;;5095856;28;20438;-68
2022/06/27 01:44:27;;;;;;;4.57;4.10;;;23.40;99.90;;;;;;5095696;28;20428;-69
2022/06/27 01:47:00;;;;;;;7.03;4.27;;;23.40;99.90;;;;;;5095404;28;20440;-69
2022/06/27 01:49:32;;;;;;;3.90;3.50;;;23.40;99.90;;;;;;5095770;28;20478;-68
2022/06/27 01:52:08;;;;;;;4.40;4.10;;;23.40;99.90;;;;;;5095386;28;20454;-69
2022/06/27 01:54:41;;;;;;;4.80;4.40;;;23.40;99.90;;;;;;5095662;28;20794;-69
2022/06/27 01:57:14;;;;;;;4.53;4.10;;;23.30;99.90;;;;;;5095220;28;20437;-68
2022/06/27 01:59:45;;;;;;;4.40;4.00;;;23.30;99.90;;;;;;5094976;28;20443;-68
2022/06/27 02:02:15;;;;;;;5.17;4.57;;;23.20;99.90;;;;;;5094668;28;20476;-68
2022/06/27 02:04:43;;;;;;;4.63;4.23;;;23.20;99.90;;;;;;5095223;28;20989;-68
2022/06/27 02:07:11;;;;;;;4.70;4.30;;;23.10;99.90;;;;;;5095103;28;20441;-68
2022/06/27 02:09:38;;;;;;;5.57;4.60;;;23.10;99.90;;;;;;5095142;28;20510;-68
2022/06/27 02:12:20;;;;;;;5.00;4.50;;;23.10;99.90;;;;;;5094856;28;20451;-68
2022/06/27 02:14:57;;;;;;;5.10;4.43;;;23.00;99.90;;;;;;5095429;28;20429;-68
2022/06/27 02:17:24;;;;;;;5.43;4.93;;;23.10;99.90;;;;;;5096162;28;20452;-68
2022/06/27 02:19:50;;;;;;;4.83;4.43;;;23.10;99.90;;;;;;5094896;28;20417;-68
2022/06/27 02:22:22;;;;;;;6.00;5.40;;;23.10;99.90;;;;;;5094869;28;20448;-68
2022/06/27 02:24:48;;;;;;;5.40;4.90;;;23.00;99.90;;;;;;5094836;28;20435;-68
2022/06/27 02:27:17;;;;;;;6.00;5.17;;;23.00;99.90;;;;;;5094741;28;20421;-68
2022/06/27 02:29:43;;;;;;;5.73;4.50;;;23.00;99.90;;;;;;5094956;28;20553;-68
2022/06/27 02:32:10;;;;;;;5.30;4.80;;;23.00;99.90;;;;;;5094638;28;20501;-69
2022/06/27 02:34:50;;;;;;;5.90;5.30;;;22.90;99.90;;;;;;5094743;28;20521;-69
2022/06/27 02:37:19;;;;;;;6.67;4.47;;;22.90;99.90;;;;;;5095040;28;20974;-68
2022/06/27 02:39:46;;;;;;;5.70;5.10;;;22.90;99.90;;;;;;5094665;28;20559;-69
2022/06/27 02:42:17;;;;;;;6.40;4.80;;;22.80;99.90;;;;;;5094653;28;20539;-68
2022/06/27 02:44:48;;;;;;;5.57;4.67;;;22.80;99.90;;;;;;5094762;28;21004;-69
2022/06/27 02:47:15;;;;;;;6.50;5.80;;;22.80;99.90;;;;;;5094512;28;20460;-68
2022/06/27 02:49:42;;;;;;;6.47;5.20;;;22.70;99.90;;;;;;5094158;28;20586;-69
2022/06/27 02:52:39;;;;;;;6.30;5.10;;;22.70;99.90;;;;;;5094406;28;20925;-69
2022/06/27 02:55:12;;;;;;;5.63;5.10;;;22.70;99.90;;;;;;5094418;28;20477;-68
2022/06/27 02:58:33;;;;;;;15.53;5.73;;;22.70;99.90;;;;;;5094023;28;20460;-68
2022/06/27 03:01:03;;;;;;;5.17;4.37;;;22.70;99.90;;;;;;5094038;28;20824;-68
2022/06/27 03:03:33;;;;;;;6.00;5.20;;;22.70;99.90;;;;;;5094395;28;20972;-68
2022/06/27 03:06:02;;;;;;;6.70;5.43;;;22.70;99.90;;;;;;5094077;28;20441;-68
2022/06/27 03:08:43;;;;;;;5.70;5.20;;;22.70;99.90;;;;;;5093796;28;20548;-68
2022/06/27 03:11:15;;;;;;;5.40;4.90;;;22.70;99.90;;;;;;5094030;28;20409;-68
2022/06/27 03:13:43;;;;;;;5.73;5.23;;;22.70;99.90;;;;;;5093008;28;20436;-68
2022/06/27 03:16:30;;;;;;;5.30;4.80;;;22.60;99.90;;;;;;5095400;28;20435;-68
2022/06/27 03:19:00;;;;;;;6.20;4.87;;;22.60;99.90;;;;;;5094000;28;20444;-69
2022/06/27 03:21:27;;;;;;;6.67;5.57;;;22.60;99.90;;;;;;5093674;28;20448;-68
2022/06/27 03:23:56;;;;;;;5.57;5.07;;;22.60;99.90;;;;;;5093956;28;20424;-68
2022/06/27 03:26:23;;;;;;;7.10;6.27;;;22.50;99.90;;;;;;5094004;28;20452;-69
2022/06/27 03:28:54;;;;;;;7.37;6.63;;;22.50;99.90;;;;;;5093596;28;21016;-68
2022/06/27 03:31:21;;;;;;;7.07;6.37;;;22.50;99.90;;;;;;5093870;28;20443;-68
2022/06/27 03:33:48;;;;;;;8.03;7.27;;;22.50;99.90;;;;;;5093730;28;20417;-68
2022/06/27 03:36:14;;;;;;;6.80;6.10;;;22.40;99.90;;;;;;5093729;28;20794;-69
2022/06/27 03:38:47;;;;;;;9.83;6.70;;;22.40;99.90;;;;;;5093547;28;20428;-68
2022/06/27 03:41:18;;;;;;;6.90;6.20;;;22.30;99.90;;;;;;5093547;28;20943;-68
2022/06/27 03:43:46;;;;;;;7.07;6.00;;;22.30;99.90;;;;;;5093449;28;20421;-68
2022/06/27 03:46:13;;;;;;;7.80;7.10;;;22.20;99.90;;;;;;5093204;28;20512;-68
2022/06/27 03:51:24;;;;;;;8.13;7.33;;;22.10;99.90;;;;;;5094646;28;20490;-69
2022/06/27 03:53:52;;;;;;;7.13;6.43;;;22.00;99.90;;;;;;5092939;28;20421;-68
2022/06/27 03:56:19;;;;;;;7.47;6.27;;;22.00;99.90;;;;;;5093051;28;20429;-68
2022/06/27 03:58:45;;;;;;;7.80;6.97;;;22.00;99.90;;;;;;5092789;28;20890;-69
2022/06/27 04:01:12;;;;;;;6.67;5.60;;;22.00;99.90;;;;;;5092905;28;20926;-68
2022/06/27 04:03:40;;;;;;;6.87;6.17;;;22.00;99.90;;;;;;5092955;28;20527;-68
2022/06/27 04:06:11;;;;;;;7.90;7.00;;;22.10;99.90;;;;;;5093216;28;20423;-68
2022/06/27 04:08:39;;;;;;;8.00;7.20;;;22.10;99.90;;;;;;5093001;28;20528;-68
2022/06/27 04:11:06;;;;;;;9.30;7.33;;;22.20;99.90;;;;;;5092735;28;20463;-68
2022/06/27 04:13:33;;;;;;;7.53;6.70;;;22.20;99.90;;;;;;5093227;28;20425;-68
2022/06/27 04:16:02;;;;;;;8.70;7.83;;;22.20;99.90;;;;;;5092780;28;20463;-68
2022/06/27 04:18:31;;;;;;;7.50;6.80;;;22.10;99.90;;;;;;5092632;28;20439;-68
2022/06/27 04:21:03;;;;;;;10.10;7.03;;;22.10;99.90;;;;;;5092716;28;20401;-68
2022/06/27 04:23:32;;;;;;;8.80;7.90;;;22.20;99.90;;;;;;5092827;28;20425;-68
2022/06/27 04:26:02;;;;;;;9.83;7.90;;;22.20;99.90;;;;;;5092689;28;20416;-68
2022/06/27 04:28:29;;;;;;;9.07;7.50;;;22.20;99.90;;;;;;5092278;28;20518;-68
2022/06/27 04:30:55;;;;;;;9.83;8.17;;;22.30;99.90;;;;;;5092483;28;20782;-68
2022/06/27 04:33:21;;;;;;;8.30;7.20;;;22.30;99.90;;;;;;5092172;28;20433;-68
2022/06/27 04:35:54;;;;;;;8.57;7.67;;;22.40;99.90;;;;;;5092596;28;20417;-68
2022/06/27 04:38:20;;;;;;;8.13;7.33;;;22.40;99.90;;;;;;5092496;28;20432;-68
2022/06/27 04:40:48;;;;;;;9.37;8.47;;;22.40;99.90;;;;;;5092268;28;20418;-69
2022/06/27 04:43:17;;;;;;;9.83;8.17;;;22.50;99.90;;;;;;5091788;28;21027;-69
2022/06/27 04:45:43;;;;;;;9.77;8.77;;;22.50;99.90;;;;;;5092569;28;20436;-68
2022/06/27 04:48:24;;;;;;;9.63;8.73;;;22.50;99.90;;;;;;5092172;28;20561;-68
2022/06/27 04:50:51;;;;;;;9.57;7.60;;;22.50;99.90;;;;;;5091656;28;21085;-68
2022/06/27 04:53:22;;;;;;;9.27;8.40;;;22.50;99.90;;;;;;5093423;28;20889;-68
2022/06/27 04:55:51;;;;;;;8.77;7.87;;;22.50;99.90;;;;;;5081495;28;20425;-68
2022/06/27 04:58:18;;;;;;;10.23;8.40;;;22.40;99.90;;;;;;5071833;28;20449;-68
2022/06/27 05:00:59;;;;;;;11.13;8.50;;;22.50;99.90;;;;;;5078638;28;20811;-68
2022/06/27 05:03:30;;;;;;;9.40;8.50;;;22.50;99.90;;;;;;5084624;28;20435;-68
2022/06/27 05:06:03;;;;;;;10.70;8.37;;;22.50;99.90;;;;;;5085510;28;20417;-68
2022/06/27 05:08:31;;;;;;;8.27;7.47;;;22.50;99.90;;;;;;5106027;28;20464;-68
2022/06/27 05:10:58;;;;;;;13.13;8.30;;;22.50;99.90;;;;;;5087586;28;20398;-69
2022/06/27 05:13:29;;;;;;;8.70;7.80;;;22.50;99.90;;;;;;5086794;28;20433;-68
2022/06/27 05:15:56;;;;;;;9.77;8.87;;;22.60;99.90;;;;;;5088970;28;20413;-68
2022/06/27 05:18:23;;;;;;;9.90;8.90;;;22.60;99.90;;;;;;5088983;28;20444;-68
2022/06/27 05:20:51;;;;;;;8.60;7.70;;;22.60;99.90;;;;;;5091341;28;20811;-68
2022/06/27 05:23:26;;;;;;;9.27;8.33;;;22.70;99.90;;;;;;5090431;28;20454;-70
2022/06/27 05:25:52;;;;;;;10.57;8.97;;;22.70;99.90;;;;;;5092076;28;20416;-68
2022/06/27 05:28:21;;;;;;;11.50;9.13;;;22.70;99.90;;;;;;5091203;28;20495;-68
2022/06/27 05:30:47;;;;;;;9.33;8.37;;;22.70;99.90;;;;;;5093410;28;20413;-68
2022/06/27 05:33:13;;;;;;;10.73;8.67;;;22.80;99.90;;;;;;5092052;28;20531;-68
2022/06/27 05:35:39;;;;;;;9.43;8.50;;;22.80;99.90;;;;;;5074197;28;20853;-68
2022/06/27 05:38:09;;;;;;;10.03;7.87;;;22.80;99.90;;;;;;5075234;28;20485;-69
2022/06/27 05:40:45;;;;;;;8.97;8.10;;;22.80;99.90;;;;;;5075846;28;20445;-69
2022/06/27 05:43:14;;;;;;;13.73;9.20;;;22.90;99.90;;;;;;5075292;28;20468;-69
2022/06/27 05:45:40;;;;;;;8.90;8.00;;;22.90;99.90;;;;;;5089212;28;20421;-68
2022/06/27 05:48:12;;;;;;;10.40;9.30;;;23.00;99.90;;;;;;5095462;28;20539;-68
2022/06/27 05:50:38;;;;;;;8.87;8.07;;;23.10;99.90;;;;;;5096420;28;20393;-68
2022/06/27 05:53:06;;;;;;;9.47;8.57;;;23.10;99.90;;;;;;5093877;28;20856;-68
2022/06/27 05:55:32;;;;;;;9.60;8.60;;;23.20;99.90;;;;;;5094458;28;20458;-70
2022/06/27 05:58:00;;;;;;;10.93;9.43;;;23.30;99.90;;;;;;5078380;28;21032;-68
2022/06/27 06:00:38;;;;;;;8.90;7.20;;;23.30;99.90;;;;;;5095286;28;20496;-69
2022/06/27 06:03:08;;;;;;;8.63;7.43;;;23.40;99.90;;;;;;5095281;28;20448;-68
2022/06/27 06:05:35;;;;;;;9.40;8.50;;;23.50;99.90;;;;;;5095379;28;20948;-69
2022/06/27 06:08:06;;;;;;;9.63;8.40;;;23.60;99.90;;;;;;5094434;28;20486;-69
2022/06/27 06:10:34;;;;;;;8.70;7.90;;;23.70;99.90;;;;;;5095271;28;20430;-68
2022/06/27 06:13:05;;;;;;;9.37;8.40;;;23.70;99.90;;;;;;5093751;28;20462;-69
2022/06/27 06:15:32;;;;;;;7.37;6.73;;;23.80;99.90;;;;;;5093867;28;20426;-69
2022/06/27 06:18:03;;;;;;;7.70;6.60;;;23.90;99.90;;;;;;5094367;28;20936;-68
2022/06/27 06:20:32;;;;;;;9.90;7.63;;;24.00;99.90;;;;;;5094886;28;20433;-68
2022/06/27 06:23:01;;;;;;;6.70;6.10;;;24.10;99.90;;;;;;5090511;28;20548;-68
2022/06/27 06:25:28;;;;;;;8.30;7.17;;;24.10;99.90;;;;;;5093025;28;20429;-68
2022/06/27 06:28:01;;;;;;;6.53;5.93;;;24.20;99.90;;;;;;5087390;28;20469;-68
2022/06/27 06:30:31;;;;;;;7.00;6.40;;;24.30;99.90;;;;;;5092822;28;20430;-68
2022/06/27 06:33:05;;;;;;;5.97;5.37;;;24.40;99.90;;;;;;5091347;28;20827;-68
2022/06/27 06:35:33;;;;;;;6.50;5.90;;;24.50;99.90;;;;;;5096895;28;20969;-69
2022/06/27 06:38:01;;;;;;;6.00;5.40;;;24.60;99.90;;;;;;5095820;28;20450;-69
2022/06/27 06:40:27;;;;;;;6.73;5.10;;;24.70;99.90;;;;;;5096068;28;20410;-70
2022/06/27 06:42:59;;;;;;;6.20;5.60;;;24.80;99.90;;;;;;5094819;28;20985;-70
2022/06/27 06:45:25;;;;;;;6.60;6.10;;;24.90;99.90;;;;;;5081920;28;20419;-69
2022/06/27 06:47:55;;;;;;;5.60;5.10;;;25.00;99.90;;;;;;5087152;28;20458;-68
2022/06/27 06:50:20;;;;;;;5.17;4.70;;;25.00;99.90;;;;;;5094600;28;20427;-69
2022/06/27 06:52:53;;;;;;;5.23;4.83;;;25.10;99.90;;;;;;5128831;27;20462;-69
2022/06/27 06:55:24;;;;;;;5.13;4.73;;;25.20;99.90;;;;;;5091933;28;20633;-69
2022/06/27 06:57:51;;;;;;;5.83;5.33;;;25.30;99.90;;;;;;5085353;28;20447;-69
2022/06/27 07:00:27;;;;;;;5.73;5.23;;;25.40;99.90;;;;;;5092166;28;20463;-69
2022/06/27 07:02:55;;;;;;;6.40;5.80;;;25.40;99.90;;;;;;5094756;28;20454;-69
2022/06/27 07:05:22;;;;;;;6.07;5.47;;;25.50;99.90;;;;;;5096629;28;20498;-69
2022/06/27 07:07:51;;;;;;;6.20;5.63;;;25.50;99.90;;;;;;5097061;28;20450;-71
2022/06/27 07:10:20;;;;;;;5.27;4.77;;;25.60;99.90;;;;;;5090271;28;20979;-70
2022/06/27 07:12:47;;;;;;;8.20;4.97;;;25.60;99.90;;;;;;5091357;28;20466;-69
2022/06/27 07:15:24;;;;;;;5.90;4.80;;;25.60;99.90;;;;;;5095266;28;21000;-69
2022/06/27 07:17:55;;;;;;;6.60;6.03;;;25.70;99.90;;;;;;5092771;28;20465;-69
2022/06/27 07:20:22;;;;;;;6.77;5.73;;;25.80;99.90;;;;;;5085935;28;20935;-69
2022/06/27 07:22:50;;;;;;;6.37;5.77;;;25.80;99.90;;;;;;5089556;28;20823;-69
2022/06/27 07:25:35;;;;;;;6.03;5.53;;;25.90;99.90;;;;;;5093624;28;20932;-69
2022/06/27 07:28:01;;;;;;;6.50;5.80;;;26.00;99.90;;;;;;5091776;28;20473;-69
2022/06/27 07:30:28;;;;;;;5.67;5.13;;;26.10;99.90;;;;;;5082274;28;20435;-69
2022/06/27 07:36:15;;;;;;;6.40;5.80;;;26.20;99.90;;;;;;5107395;28;21008;-69
2022/06/27 07:38:46;;;;;;;4.77;4.37;;;26.20;99.90;;;;;;5089093;28;20956;-69
2022/06/27 07:41:20;;;;;;;5.77;4.90;;;26.30;99.90;;;;;;5107148;28;20435;-69
2022/06/27 07:43:54;;;;;;;5.80;5.40;;;26.40;99.90;;;;;;5082838;28;20450;-68
2022/06/27 07:46:23;;;;;;;5.60;4.80;;;26.40;99.90;;;;;;5084328;28;21027;-68
2022/06/27 07:48:51;;;;;;;5.90;5.30;;;26.40;99.90;;;;;;5089986;28;20476;-68
2022/06/27 07:51:25;;;;;;;5.40;5.00;;;26.50;99.90;;;;;;5092431;28;21248;-69
2022/06/27 07:53:52;;;;;;;5.33;4.90;;;26.60;99.90;;;;;;5090295;28;20533;-69
2022/06/27 07:56:22;;;;;;;5.67;4.73;;;26.60;99.90;;;;;;5078395;28;20447;-69
2022/06/27 07:58:55;;;;;;;5.07;4.60;;;26.70;99.90;;;;;;5103201;28;20432;-68
2022/06/27 08:01:23;;;;;;;7.40;5.27;;;26.70;99.90;;;;;;5084699;28;20515;-69
2022/06/27 08:03:54;;;;;;;5.73;5.13;;;26.80;99.90;;;;;;5093499;28;20478;-69
2022/06/27 08:06:26;;;;;;;5.07;4.60;;;26.90;99.90;;;;;;5093911;28;20444;-69
2022/06/27 08:08:58;;;;;;;4.90;4.50;;;26.90;99.90;;;;;;5090135;28;20483;-69
2022/06/27 08:11:27;;;;;;;5.10;4.70;;;27.00;99.90;;;;;;5095038;28;20444;-69
2022/06/27 08:14:05;;;;;;;4.80;4.40;;;27.10;99.90;;;;;;5091456;28;20524;-69
2022/06/27 08:16:43;;;;;;;4.63;4.23;;;27.10;99.90;;;;;;5112332;28;20455;-69
2022/06/27 08:19:23;;;;;;;5.07;4.40;;;27.20;99.90;;;;;;5089703;28;20498;-69
2022/06/27 08:21:58;;;;;;;4.97;4.20;;;27.30;99.90;;;;;;5086834;28;20490;-69
2022/06/27 08:24:31;;;;;;;3.87;3.57;;;27.40;99.90;;;;;;5088117;28;20919;-69
2022/06/27 08:27:07;;;;;;;4.30;4.00;;;27.50;99.90;;;;;;5080055;28;20487;-69
2022/06/27 08:29:36;;;;;;;5.80;5.30;;;27.50;99.90;;;;;;5089449;28;20570;-69
2022/06/27 08:32:03;;;;;;;4.23;3.90;;;27.60;99.90;;;;;;5088506;28;20968;-69
2022/06/27 08:34:31;;;;;;;5.30;4.83;;;27.70;99.90;;;;;;5089232;28;20599;-68
2022/06/27 08:37:02;;;;;;;4.60;4.20;;;27.80;99.90;;;;;;5088292;28;20856;-69
2022/06/27 08:39:31;;;;;;;4.03;3.63;;;27.80;99.90;;;;;;5088124;28;20611;-69
2022/06/27 08:41:58;;;;;;;4.00;3.70;;;27.90;99.90;;;;;;5089516;28;20432;-69
2022/06/27 08:44:32;;;;;;;4.47;4.07;;;27.90;99.90;;;;;;5089426;28;20526;-69
2022/06/27 08:46:58;;;;;;;5.30;3.90;;;28.00;99.90;;;;;;5089897;28;20970;-68
2022/06/27 08:49:26;;;;;;;3.73;3.43;;;28.10;99.90;;;;;;5086263;28;20466;-68
2022/06/27 08:51:55;;;;;;;5.20;4.20;;;28.10;99.90;;;;;;5089637;28;20696;-70
2022/06/27 08:54:23;;;;;;;4.63;4.23;;;28.20;99.90;;;;;;5087624;28;20694;-68
2022/06/27 08:56:53;;;;;;;4.40;4.10;;;28.30;99.90;;;;;;5078006;28;20459;-69
2022/06/27 08:59:20;;;;;;;4.10;3.80;;;28.30;99.90;;;;;;5082638;28;21011;-69
2022/06/27 09:01:57;;;;;;;4.00;3.40;;;28.40;99.90;;;;;;5077837;28;20737;-69
2022/06/27 09:04:24;;;;;;;4.33;4.00;;;28.40;99.90;;;;;;5076739;28;20794;-69
2022/06/27 09:06:53;;;;;;;4.60;4.30;;;28.60;99.90;;;;;;5099301;28;20428;-68
2022/06/27 09:09:23;;;;;;;4.27;3.97;;;28.60;99.90;;;;;;5082085;28;20811;-69
2022/06/27 09:11:49;;;;;;;3.97;3.67;;;28.70;99.90;;;;;;5077631;28;20891;-69
2022/06/27 09:14:39;;;;;;;4.20;3.90;;;28.80;99.90;;;;;;5075172;28;20433;-69
2022/06/27 09:17:23;;;;;;;4.17;3.87;;;28.80;99.90;;;;;;5087296;28;20515;-69
2022/06/27 09:19:53;;;;;;;4.20;3.80;;;28.90;99.90;;;;;;5089494;28;20494;-69
2022/06/27 09:22:25;;;;;;;4.17;3.87;;;29.00;99.90;;;;;;5090338;28;20451;-69
2022/06/27 09:25:01;;;;;;;4.37;3.97;;;29.00;99.90;;;;;;5085608;28;20432;-69
2022/06/27 09:27:39;;;;;;;4.80;4.20;;;29.10;99.90;;;;;;5090299;28;20549;-69
2022/06/27 09:30:21;;;;;;;4.30;4.00;;;29.20;99.90;;;;;;5090561;28;20565;-69
2022/06/27 09:32:49;;;;;;;3.47;3.23;;;29.20;99.90;;;;;;5089429;28;20460;-69
2022/06/27 09:35:28;;;;;;;3.63;3.37;;;29.30;99.90;;;;;;5094826;28;20547;-69
2022/06/27 09:38:01;;;;;;;3.70;3.40;;;29.40;99.90;;;;;;5093113;28;20465;-69
2022/06/27 09:40:32;;;;;;;3.43;3.13;;;29.40;99.90;;;;;;5094777;28;20869;-69
2022/06/27 09:42:59;;;;;;;3.40;3.00;;;29.40;99.90;;;;;;5095031;28;20536;-69
2022/06/27 09:45:38;;;;;;;3.43;3.13;;;29.50;99.90;;;;;;5092212;28;20473;-69
2022/06/27 09:48:13;;;;;;;5.70;3.17;;;29.50;99.90;;;;;;5092556;28;20456;-68
2022/06/27 09:50:40;;;;;;;5.37;2.40;;;29.60;99.90;;;;;;5093259;28;20555;-70
2022/06/27 09:53:07;;;;;;;2.67;2.50;;;29.60;99.90;;;;;;5101671;28;20616;-69
2022/06/27 09:55:41;;;;;;;3.87;2.70;;;29.70;99.90;;;;;;5083347;28;20420;-69
2022/06/27 09:58:09;;;;;;;2.50;2.33;;;29.70;99.90;;;;;;5090624;28;20511;-69
2022/06/27 10:00:42;;;;;;;3.80;3.07;;;29.80;99.90;;;;;;5091490;28;20523;-70
2022/06/27 10:03:09;;;;;;;4.70;3.17;;;29.90;99.90;;;;;;5091790;28;20521;-69
2022/06/27 10:05:48;;;;;;;3.27;2.97;;;29.90;99.90;;;;;;5084261;28;20456;-69
2022/06/27 10:08:16;;;;;;;3.50;3.30;;;29.90;99.90;;;;;;5087463;28;20457;-69
2022/06/27 10:11:00;;;;;;;3.20;2.90;;;30.00;99.90;;;;;;5108569;28;20777;-69
2022/06/27 10:13:30;;;;;;;3.03;2.83;;;30.10;99.90;;;;;;5089416;28;20438;-70
2022/06/27 10:15:58;;;;;;;3.70;3.10;;;30.10;99.90;;;;;;5083716;28;20446;-70
2022/06/27 10:18:27;;;;;;;2.70;2.53;;;30.20;99.90;;;;;;5086719;28;20462;-70
2022/06/27 10:21:20;;;;;;;4.70;2.97;;;30.30;99.90;;;;;;5082980;28;20428;-69
2022/06/27 10:24:28;;;;;;;3.33;2.90;;;30.30;99.90;;;;;;5101038;28;21013;-69
2022/06/27 10:26:57;;;;;;;3.00;2.77;;;30.30;99.90;;;;;;5089081;28;20826;-69
2022/06/27 10:29:49;;;;;;;3.57;2.93;;;30.30;99.90;;;;;;5091708;28;20494;-69
2022/06/27 10:32:36;;;;;;;3.00;2.80;;;30.40;99.90;;;;;;5089886;28;20446;-69
2022/06/27 10:35:10;;;;;;;2.67;2.47;;;30.40;99.90;;;;;;5087704;28;20502;-69
2022/06/27 10:37:39;;;;;;;3.73;3.00;;;30.40;99.90;;;;;;5089082;28;20525;-69
2022/06/27 10:40:21;;;;;;;2.67;2.47;;;30.50;99.90;;;;;;5089217;28;20426;-71
2022/06/27 10:42:52;;;;;;;2.93;2.73;;;30.50;99.90;;;;;;5092156;28;20451;-69
2022/06/27 10:45:27;;;;;;;3.60;3.30;;;30.50;99.90;;;;;;5089901;28;20418;-69
2022/06/27 10:47:55;;;;;;;2.73;2.53;;;30.60;98.70;;;;;;5092951;28;20447;-70
2022/06/27 10:50:24;;;;;;;3.47;2.80;;;30.60;99.80;;;;;;5089672;28;20474;-71
2022/06/27 10:53:18;;;;;;;3.20;3.00;;;30.60;99.40;;;;;;5091040;28;20454;-69
2022/06/27 10:55:50;;;;;;;2.90;2.70;;;30.60;99.50;;;;;;5086810;28;20427;-69
2022/06/27 10:58:32;;;;;;;3.33;3.03;;;30.60;99.20;;;;;;5091279;28;20459;-69
2022/06/27 11:01:22;;;;;;;3.10;2.90;;;30.60;99.10;;;;;;5088926;28;20431;-69
2022/06/27 11:03:56;;;;;;;3.43;3.13;;;30.70;99.40;;;;;;5092404;28;20435;-69
2022/06/27 11:06:23;;;;;;;4.30;4.00;;;30.70;99.50;;;;;;5089741;28;20442;-69
2022/06/27 11:08:55;;;;;;;5.67;3.07;;;30.70;99.10;;;;;;5088026;28;20834;-69
2022/06/27 11:11:27;;;;;;;3.07;2.87;;;30.80;98.90;;;;;;5085372;28;20850;-69
2022/06/27 11:14:00;;;;;;;3.90;3.30;;;30.80;98.70;;;;;;5086331;28;20473;-70
2022/06/27 11:16:29;;;;;;;3.20;3.00;;;30.80;98.70;;;;;;5091417;28;20427;-69
2022/06/27 11:18:59;;;;;;;3.17;2.97;;;30.90;97.90;;;;;;5089825;28;20861;-69
2022/06/27 11:21:34;;;;;;;3.33;2.73;;;30.90;97.60;;;;;;5090996;28;20476;-69
2022/06/27 11:24:09;;;;;;;3.50;3.20;;;30.90;97.00;;;;;;5091862;28;20516;-69
2022/06/27 11:26:47;;;;;;;3.27;2.97;;;30.90;97.70;;;;;;5092181;28;20439;-69
2022/06/27 11:32:15;;;;;;;3.90;2.67;;;31.00;96.70;;;;;;5080075;28;20498;-69
2022/06/27 11:34:54;;;;;;;3.87;3.47;;;31.00;97.20;;;;;;5092233;28;20436;-69
2022/06/27 11:37:28;;;;;;;4.10;3.80;;;31.00;97.80;;;;;;5090579;28;20444;-69
2022/06/27 11:40:03;;;;;;;2.87;2.57;;;31.00;97.70;;;;;;5082442;28;20412;-69
2022/06/27 11:42:31;;;;;;;3.40;3.10;;;31.00;98.00;;;;;;5081567;28;20522;-69
2022/06/27 11:45:16;;;;;;;3.57;3.27;;;31.10;97.40;;;;;;5083005;28;20938;-69
2022/06/27 11:47:46;;;;;;;3.27;3.07;;;31.10;97.70;;;;;;5076365;28;20874;-69
2022/06/27 11:50:16;;;;;;;3.50;3.10;;;31.10;97.30;;;;;;5088938;28;20473;-69
2022/06/27 11:52:52;;;;;;;4.00;3.70;;;31.10;96.60;;;;;;5074477;28;20601;-70
2022/06/27 11:55:25;;;;;;;3.77;3.20;;;31.20;96.50;;;;;;5086415;28;20406;-69
2022/06/27 11:57:59;;;;;;;4.83;3.47;;;31.20;96.40;;;;;;5091010;28;21008;-69
2022/06/27 12:00:46;;;;;;;4.13;3.10;;;31.20;96.70;;;;;;5088209;28;20454;-69
2022/06/27 12:03:13;;;;;;;4.03;3.67;;;31.20;96.70;;;;;;5088365;28;20452;-69
2022/06/27 12:05:51;;;;;;;3.30;3.00;;;31.20;96.90;;;;;;5088795;28;20486;-69
2022/06/27 12:08:17;;;;;;;3.03;2.73;;;31.20;96.60;;;;;;5084539;28;20484;-69
2022/06/27 12:11:17;;;;;;;3.73;2.67;;;31.20;96.70;;;;;;5074875;28;20434;-69
2022/06/27 12:13:41;;;;;;;3.77;3.40;;;31.30;96.40;;;;;;5083245;28;20462;-69
2022/06/27 12:16:12;;;;;;;3.33;3.13;;;31.30;96.60;;;;;;5087495;28;20424;-69
2022/06/27 12:18:41;;;;;;;3.37;3.07;;;31.30;96.30;;;;;;5084650;28;20539;-69
2022/06/27 12:21:08;;;;;;;3.47;3.17;;;31.40;96.30;;;;;;5080476;28;20514;-69
2022/06/27 12:23:41;;;;;;;3.47;3.27;;;31.40;96.00;;;;;;5083211;28;20440;-69
2022/06/27 12:26:09;;;;;;;3.47;3.17;;;31.40;95.80;;;;;;5085070;28;20891;-69
2022/06/27 12:28:40;;;;;;;3.27;2.97;;;31.40;95.50;;;;;;5072505;28;20485;-69
2022/06/27 12:31:06;;;;;;;3.50;3.20;;;31.40;94.90;;;;;;5054721;28;20434;-69
2022/06/27 12:33:39;;;;;;;3.50;3.20;;;31.50;95.00;;;;;;5062308;28;20433;-69
2022/06/27 12:36:11;;;;;;;3.40;3.10;;;31.50;95.10;;;;;;5056742;28;20769;-68
2022/06/27 12:38:39;;;;;;;4.60;3.60;;;31.50;94.60;;;;;;5060485;28;20495;-70
2022/06/27 12:41:17;;;;;;;4.47;3.90;;;31.50;94.00;;;;;;5060055;28;20417;-69
2022/06/27 12:43:46;;;;;;;4.03;3.70;;;31.60;94.10;;;;;;5053547;28;20445;-69
2022/06/27 12:46:14;;;;;;;5.47;3.40;;;31.50;94.60;;;;;;5062136;28;20425;-69
2022/06/27 12:49:02;;;;;;;4.40;4.00;;;31.50;94.70;;;;;;5062294;28;20482;-69
2022/06/27 12:51:30;;;;;;;4.07;3.40;;;31.60;94.20;;;;;;5066523;28;20461;-69
2022/06/27 12:53:57;;;;;;;3.70;3.40;;;31.60;94.50;;;;;;5069040;28;20778;-69
2022/06/27 12:56:28;;;;;;;3.67;3.37;;;31.70;93.90;;;;;;5063417;28;20796;-70
2022/06/27 12:59:21;;;;;;;3.70;3.40;;;31.80;93.00;;;;;;5071182;28;20425;-69
2022/06/27 13:01:57;;;;;;;4.50;3.47;;;31.80;93.20;;;;;;5054027;28;20449;-69
2022/06/27 13:04:29;;;;;;;2.80;2.60;;;31.90;92.70;;;;;;5068566;28;20514;-69
2022/06/27 13:06:58;;;;;;;5.40;3.67;;;31.90;92.50;;;;;;5064231;28;20445;-69
2022/06/27 13:09:26;;;;;;;5.10;3.40;;;31.90;93.10;;;;;;5069868;28;21016;-69
2022/06/27 13:11:54;;;;;;;3.90;3.60;;;31.90;93.10;;;;;;5070110;28;20441;-69
2022/06/27 13:14:22;;;;;;;3.67;3.37;;;31.90;93.20;;;;;;5060273;28;20542;-69